createdAt,value
2022-08-05T00:00:20.982Z,28.47
2022-08-05T00:02:51.296Z,28.63
2022-08-05T00:06:02.496Z,28.59
2022-08-05T00:08:34.079Z,28.24
2022-08-05T00:11:02.987Z,27.89
2022-08-05T00:13:39.503Z,27.13
2022-08-05T00:16:14.941Z,27.72
2022-08-05T00:18:48.517Z,27.48
2022-08-05T00:21:18.158Z,27.44
2022-08-05T00:24:09.926Z,27.54
2022-08-05T00:26:34.418Z,27.84
2022-08-05T00:29:01.553Z,27.78
2022-08-05T00:31:53.156Z,26.96
2022-08-05T00:34:53.354Z,27.12
2022-08-05T00:37:09.860Z,27.35
2022-08-05T00:39:57.192Z,27.70
2022-08-05T00:42:38.149Z,26.95
2022-08-05T00:45:08.504Z,27.48
2022-08-05T00:47:56.783Z,27.32
2022-08-05T00:50:25.318Z,27.33
2022-08-05T00:52:55.043Z,26.13
2022-08-05T00:55:23.318Z,27.80
2022-08-05T00:58:16.952Z,26.62
2022-08-05T01:00:47.499Z,27.18
2022-08-05T01:03:22.740Z,27.01
2022-08-05T01:05:51.778Z,27.14
2022-08-05T01:08:39.950Z,28.10
2022-08-05T01:11:33.490Z,27.41
2022-08-05T01:14:27.784Z,27.23
2022-08-05T01:17:04.675Z,27.67
2022-08-05T01:20:06.178Z,26.62
2022-08-05T01:23:00.651Z,26.78
2022-08-05T01:25:56.823Z,26.64
2022-08-05T01:28:54.012Z,27.41
2022-08-05T01:31:42.672Z,27.30
2022-08-05T01:34:50.804Z,27.13
2022-08-05T01:37:31.092Z,27.41
2022-08-05T01:40:01.652Z,27.18
2022-08-05T01:42:31.526Z,27.11
2022-08-05T01:45:02.296Z,26.99
2022-08-05T01:47:39.014Z,26.91
2022-08-05T01:50:20.119Z,26.75
2022-08-05T01:53:02.577Z,26.34
2022-08-05T01:55:36.086Z,25.94
2022-08-05T01:58:12.556Z,26.44
2022-08-05T02:00:51.009Z,26.43
2022-08-05T02:03:36.179Z,26.56
2022-08-05T02:06:37.369Z,26.52
2022-08-05T02:08:58.957Z,26.73
2022-08-05T02:11:33.114Z,26.84
2022-08-05T02:14:15.631Z,26.69
2022-08-05T02:16:53.016Z,27.11
2022-08-05T02:19:47.251Z,27.38
2022-08-05T02:22:31.600Z,27.54
2022-08-05T02:25:08.756Z,27.80
2022-08-05T02:27:59.724Z,28.00
2022-08-05T02:30:51.749Z,27.95
2022-08-05T02:33:24.619Z,27.79
2022-08-05T02:39:09.285Z,28.65
2022-08-05T02:41:58.034Z,28.45
2022-08-05T02:44:28.299Z,28.49
2022-08-05T02:47:00.693Z,28.03
2022-08-05T02:49:36.671Z,27.59
2022-08-05T02:52:26.028Z,27.30
2022-08-05T02:55:01.969Z,27.26
2022-08-05T02:58:11.264Z,27.92
2022-08-05T03:00:22.750Z,27.13
2022-08-05T03:02:54.543Z,27.50
2022-08-05T03:06:55.387Z,27.23
2022-08-05T03:08:11.299Z,26.80
2022-08-05T03:10:38.931Z,26.62
2022-08-05T03:13:17.209Z,25.92
2022-08-05T03:15:50.857Z,25.51
2022-08-05T03:18:19.049Z,25.92
2022-08-05T03:20:57.146Z,25.98
2022-08-05T03:23:25.148Z,26.55
2022-08-05T03:26:03.923Z,26.32
2022-08-05T03:28:40.025Z,25.82
2022-08-05T03:31:09.363Z,26.43
2022-08-05T03:33:52.778Z,26.66
2022-08-05T03:36:30.110Z,25.05
2022-08-05T03:38:58.287Z,25.73
2022-08-05T03:41:25.725Z,26.29
2022-08-05T03:44:10.998Z,26.17
2022-08-05T03:46:39.334Z,26.53
2022-08-05T03:49:06.790Z,26.70
2022-08-05T03:52:37.213Z,26.63
2022-08-05T03:55:51.843Z,26.53
2022-08-05T03:57:42.357Z,26.35
2022-08-05T04:00:15.863Z,25.74
2022-08-05T04:02:57.750Z,25.67
2022-08-05T04:05:34.417Z,26.08
2022-08-05T04:08:35.327Z,25.01
2022-08-05T04:11:03.370Z,24.94
2022-08-05T04:13:49.930Z,25.08
2022-08-05T04:16:24.343Z,25.36
2022-08-05T04:18:54.763Z,25.67
2022-08-05T04:22:08.590Z,25.25
2022-08-05T04:24:19.119Z,24.86
2022-08-05T04:26:50.334Z,25.34
2022-08-05T04:29:17.319Z,25.17
2022-08-05T04:31:44.256Z,25.14
2022-08-05T04:34:29.569Z,24.84
2022-08-05T04:36:59.256Z,24.85
2022-08-05T04:39:27.928Z,25.35
2022-08-05T04:41:55.490Z,25.95
2022-08-05T04:44:29.992Z,25.35
2022-08-05T04:47:09.170Z,25.73
2022-08-05T04:50:03.013Z,25.23
2022-08-05T04:52:28.383Z,25.72
2022-08-05T04:54:57.256Z,25.42
2022-08-05T04:57:29.229Z,25.99
2022-08-05T04:59:58.664Z,25.71
2022-08-05T05:02:36.980Z,25.74
2022-08-05T05:05:16.706Z,26.08
2022-08-05T05:08:30.155Z,25.72
2022-08-05T05:10:57.676Z,26.18
2022-08-05T05:13:24.877Z,25.81
2022-08-05T05:16:01.995Z,25.69
2022-08-05T05:18:33.626Z,26.73
2022-08-05T05:21:03.198Z,25.98
2022-08-05T05:23:38.993Z,26.18
2022-08-05T05:26:17.747Z,26.86
2022-08-05T05:28:45.372Z,27.18
2022-08-05T05:31:13.026Z,27.47
2022-08-05T05:33:58.512Z,29.03
2022-08-05T05:36:28.518Z,30.82
2022-08-05T05:38:57.334Z,31.13
2022-08-05T05:41:24.741Z,29.93
2022-08-05T05:43:56.552Z,30.45
2022-08-05T05:46:25.834Z,29.08
2022-08-05T05:48:52.989Z,29.01
2022-08-05T05:51:22.075Z,27.16
2022-08-05T05:53:57.297Z,27.85
2022-08-05T05:56:32.937Z,27.75
2022-08-05T05:59:06.994Z,30.48
2022-08-05T06:01:39.453Z,28.87
2022-08-05T06:04:12.250Z,28.95
2022-08-05T06:06:47.722Z,28.20
2022-08-05T06:09:26.517Z,28.33
2022-08-05T06:12:05.783Z,28.53
2022-08-05T06:14:37.141Z,28.24
2022-08-05T06:17:22.476Z,28.28
2022-08-05T06:19:56.775Z,27.68
2022-08-05T06:22:33.477Z,28.21
2022-08-05T06:25:58.976Z,28.17
2022-08-05T06:28:11.466Z,27.91
2022-08-05T06:30:38.188Z,27.08
2022-08-05T06:33:10.604Z,27.89
2022-08-05T06:36:04.003Z,27.60
2022-08-05T06:38:36.042Z,27.83
2022-08-05T06:41:08.028Z,28.17
2022-08-05T06:43:51.559Z,28.16
2022-08-05T06:46:30.261Z,28.43
2022-08-05T06:48:59.730Z,27.87
2022-08-05T06:51:29.744Z,28.12
2022-08-05T06:53:59.881Z,28.41
2022-08-05T06:56:28.207Z,28.13
2022-08-05T06:58:55.755Z,28.03
2022-08-05T07:01:27.705Z,27.76
2022-08-05T07:04:02.273Z,27.63
2022-08-05T07:06:30.120Z,27.23
2022-08-05T07:08:59.206Z,27.18
2022-08-05T07:11:28.612Z,27.74
2022-08-05T07:14:20.010Z,27.43
2022-08-05T07:17:59.112Z,27.91
2022-08-05T07:22:28.747Z,28.96
2022-08-05T07:25:22.381Z,29.22
2022-08-05T07:27:57.566Z,28.91
2022-08-05T07:30:39.207Z,28.89
2022-08-05T07:33:16.687Z,28.34
2022-08-05T07:36:05.057Z,28.85
2022-08-05T07:38:42.583Z,28.73
2022-08-05T07:42:13.506Z,29.10
2022-08-05T07:44:14.186Z,29.26
2022-08-05T07:46:48.411Z,28.78
2022-08-05T07:49:18.122Z,28.56
2022-08-05T07:51:52.851Z,28.59
2022-08-05T07:54:30.734Z,28.58
2022-08-05T07:57:02.876Z,28.69
2022-08-05T07:59:46.901Z,28.47
2022-08-05T08:02:17.664Z,29.59
2022-08-05T08:04:49.500Z,29.25
2022-08-05T08:07:22.697Z,30.63
2022-08-05T08:09:55.037Z,30.41
2022-08-05T08:12:37.419Z,30.89
2022-08-05T08:15:15.404Z,30.55
2022-08-05T08:17:52.977Z,30.63
2022-08-05T08:21:00.286Z,31.67
2022-08-05T08:24:02.598Z,31.02
2022-08-05T08:26:04.504Z,31.01
2022-08-05T08:28:36.427Z,31.00
2022-08-05T08:31:07.319Z,31.78
2022-08-05T08:33:37.600Z,32.32
2022-08-05T08:36:50.494Z,32.53
2022-08-05T08:39:18.644Z,31.45
2022-08-05T08:41:51.682Z,32.90
2022-08-05T08:45:18.901Z,32.33
2022-08-05T08:48:05.811Z,32.54
2022-08-05T08:50:30.710Z,31.14
2022-08-05T08:53:07.950Z,32.80
2022-08-05T08:56:02.741Z,33.31
2022-08-05T08:58:43.548Z,32.09
2022-08-05T09:01:15.838Z,32.51
2022-08-05T09:03:48.382Z,32.38
2022-08-05T09:06:28.232Z,32.72
2022-08-05T09:09:02.091Z,33.56
2022-08-05T09:11:53.194Z,32.36
2022-08-05T09:14:56.898Z,32.58
2022-08-05T09:17:09.805Z,32.90
2022-08-05T09:19:55.056Z,32.72
2022-08-05T09:22:31.868Z,33.47
2022-08-05T09:25:13.711Z,33.25
2022-08-05T09:28:04.307Z,33.84
2022-08-05T09:30:34.935Z,33.53
2022-08-05T09:33:02.653Z,33.80
2022-08-05T09:35:34.432Z,33.90
2022-08-05T09:38:17.146Z,33.36
2022-08-05T09:40:52.433Z,33.68
2022-08-05T09:43:41.606Z,33.90
2022-08-05T09:46:32.856Z,33.97
2022-08-05T09:49:19.403Z,34.03
2022-08-05T09:51:48.993Z,34.46
2022-08-05T09:54:29.564Z,33.81
2022-08-05T09:56:57.489Z,34.22
2022-08-05T09:59:27.574Z,34.49
2022-08-05T10:01:57.790Z,33.68
2022-08-05T10:04:38.557Z,34.83
2022-08-05T10:07:19.623Z,35.34
2022-08-05T10:10:04.274Z,35.50
2022-08-05T10:12:55.429Z,34.82
2022-08-05T10:15:34.090Z,35.28
2022-08-05T10:18:16.730Z,33.95
2022-08-05T10:20:53.804Z,34.53
2022-08-05T10:23:55.418Z,35.59
2022-08-05T10:26:31.606Z,34.57
2022-08-05T10:29:00.462Z,35.71
2022-08-05T10:33:01.410Z,35.46
2022-08-05T10:34:14.741Z,35.39
2022-08-05T10:36:45.119Z,35.51
2022-08-05T10:39:25.209Z,35.71
2022-08-05T10:42:18.652Z,34.54
2022-08-05T10:44:50.971Z,35.76
2022-08-05T10:47:26.779Z,35.67
2022-08-05T10:50:33.176Z,35.40
2022-08-05T10:52:58.706Z,35.78
2022-08-05T10:55:27.474Z,35.73
2022-08-05T10:58:21.002Z,34.32
2022-08-05T11:00:48.469Z,34.79
2022-08-05T11:03:24.603Z,35.37
2022-08-05T11:06:15.363Z,35.90
2022-08-05T11:09:32.167Z,35.68
2022-08-05T11:12:26.672Z,36.77
2022-08-05T11:16:00.347Z,36.44
2022-08-05T11:18:37.020Z,35.91
2022-08-05T11:21:40.919Z,36.25
2022-08-05T11:24:29.965Z,36.74
2022-08-05T11:27:51.440Z,36.45
2022-08-05T11:30:17.989Z,37.05
2022-08-05T11:32:47.911Z,36.88
2022-08-05T11:36:07.627Z,36.67
2022-08-05T11:38:46.124Z,36.08
2022-08-05T11:41:58.205Z,36.53
2022-08-05T11:44:40.780Z,35.94
2022-08-05T11:47:11.708Z,36.06
2022-08-05T11:49:43.242Z,36.80
2022-08-05T11:52:29.208Z,36.13
2022-08-05T11:54:59.345Z,35.43
2022-08-05T11:57:39.591Z,35.59
2022-08-05T12:00:31.126Z,36.07
2022-08-05T12:02:58.411Z,35.62
2022-08-05T12:05:32.341Z,35.40
2022-08-05T12:08:11.262Z,36.84
2022-08-05T12:10:45.768Z,35.88
2022-08-05T12:13:27.987Z,36.36
2022-08-05T12:16:14.484Z,36.62
2022-08-05T12:18:52.787Z,37.14
2022-08-05T12:21:30.690Z,36.58
2022-08-05T12:24:07.340Z,35.82
2022-08-05T12:26:44.286Z,36.43
2022-08-05T12:29:23.632Z,35.55
2022-08-05T12:31:56.024Z,36.79
2022-08-05T12:34:33.621Z,35.92
2022-08-05T12:37:21.492Z,35.97
2022-08-05T12:39:53.777Z,36.20
2022-08-05T12:42:21.898Z,36.86
2022-08-05T12:44:52.787Z,36.75
2022-08-05T12:47:31.088Z,36.64
2022-08-05T12:50:03.285Z,36.71
2022-08-05T12:52:39.578Z,37.04
2022-08-05T12:55:26.265Z,36.92
2022-08-05T12:58:50.934Z,37.39
2022-08-05T13:02:01.313Z,35.57
2022-08-05T13:03:42.043Z,36.22
2022-08-05T13:06:16.776Z,36.95
2022-08-05T13:08:51.791Z,37.06
2022-08-05T13:11:25.316Z,36.15
2022-08-05T13:14:36.296Z,37.39
2022-08-05T13:17:31.707Z,37.52
2022-08-05T13:20:24.145Z,38.20
2022-08-05T13:22:56.363Z,38.64
2022-08-05T13:25:51.945Z,39.07
2022-08-05T13:28:12.980Z,38.03
2022-08-05T13:30:41.364Z,38.67
2022-08-05T13:33:08.539Z,38.34
2022-08-05T13:35:51.185Z,37.63
2022-08-05T13:38:31.153Z,38.87
2022-08-05T13:41:03.909Z,38.42
2022-08-05T13:43:44.163Z,38.06
2022-08-05T13:46:13.885Z,38.12
2022-08-05T13:48:57.497Z,37.84
2022-08-05T13:51:40.193Z,37.93
2022-08-05T13:54:12.321Z,38.20
2022-08-05T13:56:51.093Z,38.00
2022-08-05T13:59:24.720Z,37.48
2022-08-05T14:01:59.867Z,37.22
2022-08-05T14:04:51.137Z,38.29
2022-08-05T14:07:25.743Z,38.05
2022-08-05T14:10:19.153Z,37.75
2022-08-05T14:12:55.482Z,36.77
2022-08-05T14:16:08.685Z,37.09
2022-08-05T14:18:14.754Z,38.02
2022-08-05T14:20:46.838Z,38.24
2022-08-05T14:23:24.604Z,37.89
2022-08-05T14:25:58.524Z,37.76
2022-08-05T14:28:30.876Z,37.44
2022-08-05T14:31:00.873Z,37.27
2022-08-05T14:33:56.811Z,37.75
2022-08-05T14:36:20.605Z,36.45
2022-08-05T14:38:50.783Z,36.86
2022-08-05T14:41:20.053Z,36.61
2022-08-05T14:44:02.195Z,36.86
2022-08-05T14:46:36.704Z,37.11
2022-08-05T14:49:07.341Z,36.73
2022-08-05T14:51:42.582Z,36.00
2022-08-05T14:54:27.501Z,36.61
2022-08-05T14:56:57.945Z,37.60
2022-08-05T14:59:29.525Z,36.45
2022-08-05T15:02:03.550Z,36.83
2022-08-05T15:04:41.953Z,37.29
2022-08-05T15:07:10.355Z,36.16
2022-08-05T15:09:57.500Z,37.08
2022-08-05T15:12:33.658Z,36.22
2022-08-05T15:15:15.500Z,35.51
2022-08-05T15:17:46.920Z,35.71
2022-08-05T15:20:24.627Z,36.02
2022-08-05T15:22:54.927Z,35.31
2022-08-05T15:25:41.326Z,33.50
2022-08-05T15:28:14.874Z,34.14
2022-08-05T15:30:45.745Z,35.06
2022-08-05T15:33:56.835Z,33.34
2022-08-05T15:36:04.090Z,34.08
2022-08-05T15:38:41.258Z,34.60
2022-08-05T15:41:21.047Z,33.34
2022-08-05T15:43:51.311Z,33.81
2022-08-05T15:46:20.803Z,33.71
2022-08-05T15:49:00.951Z,33.29
2022-08-05T15:52:13.642Z,33.15
2022-08-05T15:54:37.329Z,33.49
2022-08-05T15:57:07.462Z,33.20
2022-08-05T15:59:36.146Z,33.47
2022-08-05T16:02:14.487Z,33.58
2022-08-05T16:04:43.421Z,32.99
2022-08-05T16:07:11.390Z,32.88
2022-08-05T16:09:41.586Z,32.08
2022-08-05T16:12:09.456Z,32.13
2022-08-05T16:14:38.491Z,32.48
2022-08-05T16:17:05.646Z,31.45
2022-08-05T16:20:11.772Z,32.28
2022-08-05T16:22:27.430Z,32.05
2022-08-05T16:24:55.510Z,31.79
2022-08-05T16:27:46.692Z,31.56
2022-08-05T16:30:26.472Z,31.89
2022-08-05T16:32:58.609Z,31.39
2022-08-05T16:35:33.709Z,31.17
2022-08-05T16:38:24.510Z,31.72
2022-08-05T16:40:59.825Z,30.65
2022-08-05T16:43:33.607Z,31.63
2022-08-05T16:46:23.762Z,32.04
2022-08-05T16:48:52.083Z,30.26
2022-08-05T16:51:20.709Z,30.65
2022-08-05T16:54:02.546Z,30.64
2022-08-05T16:56:34.323Z,30.20
2022-08-05T16:59:09.098Z,30.57
2022-08-05T17:01:52.956Z,30.35
2022-08-05T17:04:26.594Z,30.56
2022-08-05T17:07:01.288Z,29.66
2022-08-05T17:09:30.261Z,30.42
2022-08-05T17:11:59.723Z,30.03
2022-08-05T17:14:37.447Z,29.85
2022-08-05T17:17:14.151Z,29.64
2022-08-05T17:19:45.642Z,29.94
2022-08-05T17:22:24.903Z,30.63
2022-08-05T17:24:57.599Z,30.09
2022-08-05T17:27:33.848Z,30.15
2022-08-05T17:30:12.191Z,29.44
2022-08-05T17:32:46.679Z,30.06
2022-08-05T17:35:15.827Z,29.86
2022-08-05T17:37:48.647Z,30.14
2022-08-05T17:40:18.539Z,29.65
2022-08-05T17:42:52.212Z,30.03
2022-08-05T17:45:22.941Z,29.76
2022-08-05T17:47:54.957Z,29.75
2022-08-05T17:50:30.539Z,29.55
2022-08-05T17:53:01.075Z,29.26
2022-08-05T17:55:38.163Z,28.87
2022-08-05T17:58:09.324Z,28.95
2022-08-05T18:00:40.801Z,29.50
2022-08-05T18:03:28.142Z,29.19
2022-08-05T18:06:04.919Z,28.94
2022-08-05T18:08:33.792Z,28.64
2022-08-05T18:11:03.253Z,28.84
2022-08-05T18:13:35.615Z,29.11
2022-08-05T18:16:05.078Z,28.76
2022-08-05T18:18:33.655Z,28.86
2022-08-05T18:21:13.400Z,28.72
2022-08-05T18:23:47.271Z,28.61
2022-08-05T18:26:14.744Z,28.87
2022-08-05T18:28:46.336Z,28.65
2022-08-05T18:31:13.738Z,28.48
2022-08-05T18:33:47.025Z,28.66
2022-08-05T18:36:15.081Z,28.66
2022-08-05T18:38:43.143Z,28.82
2022-08-05T18:41:57.573Z,28.42
2022-08-05T18:43:57.531Z,28.48
2022-08-05T18:46:33.142Z,28.74
2022-08-05T18:49:21.085Z,28.26
2022-08-05T18:52:08.412Z,28.62
2022-08-05T18:54:35.909Z,28.25
2022-08-05T18:57:09.570Z,28.04
2022-08-05T19:00:03.192Z,27.94
2022-08-05T19:02:29.896Z,27.52
2022-08-05T19:05:03.235Z,27.82
2022-08-05T19:07:50.823Z,28.20
2022-08-05T19:10:20.526Z,27.89
2022-08-05T19:12:55.741Z,27.68
2022-08-05T19:15:25.251Z,27.33
2022-08-05T19:18:22.032Z,27.25
2022-08-05T19:20:52.445Z,28.04
2022-08-05T19:24:04.095Z,27.88
2022-08-05T19:26:08.428Z,27.86
2022-08-05T19:28:43.302Z,27.66
2022-08-05T19:31:13.211Z,27.50
2022-08-05T19:33:53.086Z,27.83
2022-08-05T19:36:29.222Z,27.44
2022-08-05T19:39:00.584Z,27.69
2022-08-05T19:42:05.340Z,27.86
2022-08-05T19:44:19.522Z,27.38
2022-08-05T19:46:46.850Z,27.94
2022-08-05T19:49:16.536Z,27.82
2022-08-05T19:52:09.040Z,27.68
2022-08-05T19:54:32.896Z,27.58
2022-08-05T19:57:09.185Z,27.74
2022-08-05T19:59:55.369Z,27.35
2022-08-05T20:02:30.382Z,28.24
2022-08-05T20:04:59.719Z,27.75
2022-08-05T20:07:48.250Z,27.47
2022-08-05T20:10:17.173Z,28.15
2022-08-05T20:12:46.232Z,28.00
2022-08-05T20:15:23.058Z,27.13
2022-08-05T20:18:10.206Z,26.91
2022-08-05T20:20:56.213Z,26.35
2022-08-05T20:23:40.384Z,25.76
2022-08-05T20:26:16.125Z,26.02
2022-08-05T20:28:48.743Z,26.17
2022-08-05T20:31:21.823Z,25.46
2022-08-05T20:33:50.754Z,26.01
2022-08-05T20:36:21.564Z,26.40
2022-08-05T20:38:54.232Z,26.21
2022-08-05T20:41:44.580Z,26.38
2022-08-05T20:44:29.456Z,26.09
2022-08-05T20:46:59.718Z,26.52
2022-08-05T20:49:27.008Z,26.48
2022-08-05T20:51:55.831Z,25.85
2022-08-05T20:54:42.785Z,25.94
2022-08-05T20:57:10.859Z,26.50
2022-08-05T21:00:10.561Z,25.46
2022-08-05T21:02:29.161Z,25.70
2022-08-05T21:04:56.452Z,25.73
2022-08-05T21:07:24.349Z,25.47
2022-08-05T21:09:53.872Z,25.45
2022-08-05T21:12:21.671Z,25.44
2022-08-05T21:14:53.941Z,25.51
2022-08-05T21:17:22.128Z,25.47
2022-08-05T21:19:50.522Z,25.74
2022-08-05T21:22:23.533Z,25.61
2022-08-05T21:24:54.391Z,25.55
2022-08-05T21:27:25.382Z,25.72
2022-08-05T21:29:56.220Z,25.21
2022-08-05T21:32:26.624Z,25.33
2022-08-05T21:35:17.223Z,24.95
2022-08-05T21:37:47.294Z,25.78
2022-08-05T21:40:16.617Z,25.66
2022-08-05T21:42:45.484Z,25.28
2022-08-05T21:45:24.738Z,25.48
2022-08-05T21:47:56.230Z,25.82
2022-08-05T21:50:28.209Z,25.11
2022-08-05T21:52:58.722Z,25.05
2022-08-05T21:56:01.362Z,25.33
2022-08-05T21:58:13.281Z,25.24
2022-08-05T22:00:40.464Z,24.86
2022-08-05T22:03:14.399Z,24.99
2022-08-05T22:05:48.853Z,25.06
2022-08-05T22:08:22.159Z,25.71
2022-08-05T22:10:50.991Z,25.24
2022-08-05T22:14:06.431Z,25.23
2022-08-05T22:16:20.395Z,25.18
2022-08-05T22:18:53.029Z,24.78
2022-08-05T22:21:20.555Z,24.83
2022-08-05T22:24:09.040Z,25.12
2022-08-05T22:26:59.256Z,24.77
2022-08-05T22:29:32.844Z,24.92
2022-08-05T22:32:03.190Z,24.70
2022-08-05T22:34:32.240Z,25.15
2022-08-05T22:37:00.789Z,25.01
2022-08-05T22:39:33.981Z,25.20
2022-08-05T22:42:12.725Z,24.86
2022-08-05T22:44:48.401Z,24.62
2022-08-05T22:47:29.751Z,24.53
2022-08-05T22:50:20.364Z,24.99
2022-08-05T22:52:51.259Z,24.67
2022-08-05T22:55:21.943Z,24.71
2022-08-05T22:57:51.478Z,24.76
2022-08-05T23:00:21.730Z,24.72
2022-08-05T23:02:50.784Z,24.78
2022-08-05T23:05:22.259Z,25.27
2022-08-05T23:07:52.646Z,24.74
2022-08-05T23:10:24.049Z,24.43
2022-08-05T23:12:54.937Z,23.96
2022-08-05T23:15:27.159Z,24.79
2022-08-05T23:18:01.376Z,24.57
2022-08-05T23:20:32.341Z,24.38
2022-08-05T23:23:00.114Z,24.18
2022-08-05T23:25:52.816Z,24.58
2022-08-05T23:28:17.307Z,24.16
2022-08-05T23:30:53.077Z,24.34
2022-08-05T23:34:02.963Z,24.36
2022-08-05T23:36:10.507Z,24.54
2022-08-05T23:38:38.489Z,23.81
2022-08-05T23:41:05.788Z,23.95
2022-08-05T23:44:03.238Z,24.07
2022-08-05T23:46:22.139Z,24.17
2022-08-05T23:49:01.114Z,23.80
2022-08-05T23:51:55.459Z,24.20
2022-08-05T23:54:30.151Z,23.96
2022-08-05T23:57:04.943Z,23.72
